sensor_id;sensor_type;location;lat;lon;timestamp;pressure;altitude;pressure_sealevel;temperature;humidity
72802;BME280;61891;55.818;37.084;2023-08-30T00:00:19;99408.25;;;14.09;72.26
72802;BME280;61891;55.818;37.084;2023-08-30T00:02:47;99432.31;;;14.15;72.09
72802;BME280;61891;55.818;37.084;2023-08-30T00:05:14;99433.97;;;14.16;72.13
72802;BME280;61891;55.818;37.084;2023-08-30T00:07:40;99433.25;;;14.08;71.92
72802;BME280;61891;55.818;37.084;2023-08-30T00:10:09;99415.78;;;14.05;71.96
72802;BME280;61891;55.818;37.084;2023-08-30T00:12:36;99407.91;;;13.97;72.02
72802;BME280;61891;55.818;37.084;2023-08-30T00:15:02;99429.38;;;14.10;71.67
72802;BME280;61891;55.818;37.084;2023-08-30T00:17:29;99443.34;;;14.12;71.81
72802;BME280;61891;55.818;37.084;2023-08-30T00:19:55;99437.38;;;14.10;71.92
72802;BME280;61891;55.818;37.084;2023-08-30T00:22:21;99441.31;;;14.14;71.83
72802;BME280;61891;55.818;37.084;2023-08-30T00:24:48;99445.84;;;14.14;71.82
72802;BME280;61891;55.818;37.084;2023-08-30T00:27:13;99449.06;;;14.09;71.66
72802;BME280;61891;55.818;37.084;2023-08-30T00:29:39;99450.19;;;14.00;71.96
72802;BME280;61891;55.818;37.084;2023-08-30T00:32:06;99450.09;;;13.94;72.21
72802;BME280;61891;55.818;37.084;2023-08-30T00:34:32;99452.31;;;13.90;71.88
72802;BME280;61891;55.818;37.084;2023-08-30T00:36:57;99460.31;;;13.90;72.13
72802;BME280;61891;55.818;37.084;2023-08-30T00:39:23;99452.50;;;13.88;72.18
72802;BME280;61891;55.818;37.084;2023-08-30T00:41:49;99464.81;;;13.90;72.08
72802;BME280;61891;55.818;37.084;2023-08-30T00:44:15;99423.84;;;13.61;72.12
72802;BME280;61891;55.818;37.084;2023-08-30T00:46:41;99476.56;;;13.95;72.02
72802;BME280;61891;55.818;37.084;2023-08-30T00:49:07;99474.34;;;13.99;71.92
72802;BME280;61891;55.818;37.084;2023-08-30T00:51:33;99476.28;;;14.05;71.68
72802;BME280;61891;55.818;37.084;2023-08-30T00:54:00;99455.50;;;14.00;71.94
72802;BME280;61891;55.818;37.084;2023-08-30T00:56:27;99477.81;;;14.14;71.83
72802;BME280;61891;55.818;37.084;2023-08-30T00:58:54;99453.84;;;13.99;71.71
72802;BME280;61891;55.818;37.084;2023-08-30T01:01:20;99480.31;;;14.15;71.82
72802;BME280;61891;55.818;37.084;2023-08-30T01:03:46;99467.16;;;14.14;71.59
72802;BME280;61891;55.818;37.084;2023-08-30T01:06:12;99465.06;;;14.09;71.70
72802;BME280;61891;55.818;37.084;2023-08-30T01:08:41;99448.53;;;13.99;71.74
72802;BME280;61891;55.818;37.084;2023-08-30T01:13:44;99465.97;;;14.16;72.28
72802;BME280;61891;55.818;37.084;2023-08-30T01:16:11;99456.03;;;14.10;71.75
72802;BME280;61891;55.818;37.084;2023-08-30T01:18:39;99463.22;;;14.10;71.67
72802;BME280;61891;55.818;37.084;2023-08-30T01:21:08;99464.69;;;14.12;71.69
72802;BME280;61891;55.818;37.084;2023-08-30T01:24:00;99425.84;;;13.88;72.10
72802;BME280;61891;55.818;37.084;2023-08-30T01:26:42;99484.13;;;14.28;71.63
72802;BME280;61891;55.818;37.084;2023-08-30T01:29:11;99477.78;;;14.29;71.68
72802;BME280;61891;55.818;37.084;2023-08-30T01:31:39;99488.91;;;14.32;71.66
72802;BME280;61891;55.818;37.084;2023-08-30T01:34:06;99486.25;;;14.32;71.55
72802;BME280;61891;55.818;37.084;2023-08-30T01:36:32;99447.84;;;14.12;71.59
72802;BME280;61891;55.818;37.084;2023-08-30T01:39:00;99453.72;;;14.22;71.35
72802;BME280;61891;55.818;37.084;2023-08-30T01:41:27;99481.81;;;14.39;71.43
72802;BME280;61891;55.818;37.084;2023-08-30T01:43:54;99457.66;;;14.26;71.10
72802;BME280;61891;55.818;37.084;2023-08-30T01:46:23;99480.63;;;14.42;71.26
72802;BME280;61891;55.818;37.084;2023-08-30T01:48:50;99483.94;;;14.44;71.16
72802;BME280;61891;55.818;37.084;2023-08-30T01:51:16;99471.97;;;14.40;71.31
72802;BME280;61891;55.818;37.084;2023-08-30T01:53:43;99478.22;;;14.47;71.44
72802;BME280;61891;55.818;37.084;2023-08-30T01:56:09;99475.75;;;14.45;71.23
72802;BME280;61891;55.818;37.084;2023-08-30T01:58:35;99476.19;;;14.49;71.00
72802;BME280;61891;55.818;37.084;2023-08-30T02:01:01;99470.78;;;14.42;71.10
72802;BME280;61891;55.818;37.084;2023-08-30T02:03:27;99474.81;;;14.53;71.32
72802;BME280;61891;55.818;37.084;2023-08-30T02:06:09;99462.59;;;14.44;71.38
72802;BME280;61891;55.818;37.084;2023-08-30T02:11:22;99424.84;;;14.26;71.41
72802;BME280;61891;55.818;37.084;2023-08-30T02:13:50;99477.72;;;14.58;71.30
72802;BME280;61891;55.818;37.084;2023-08-30T02:16:18;99454.59;;;14.44;70.84
72802;BME280;61891;55.818;37.084;2023-08-30T02:18:45;99496.22;;;14.60;71.05
72802;BME280;61891;55.818;37.084;2023-08-30T02:21:11;99484.19;;;14.49;71.20
72802;BME280;61891;55.818;37.084;2023-08-30T02:23:37;99493.09;;;14.56;71.27
72802;BME280;61891;55.818;37.084;2023-08-30T02:26:03;99496.66;;;14.63;71.18
72802;BME280;61891;55.818;37.084;2023-08-30T02:28:29;99490.06;;;14.59;71.27
72802;BME280;61891;55.818;37.084;2023-08-30T02:30:54;99506.75;;;14.68;71.15
72802;BME280;61891;55.818;37.084;2023-08-30T02:33:21;99489.88;;;14.61;70.87
72802;BME280;61891;55.818;37.084;2023-08-30T02:35:46;99499.00;;;14.73;71.40
72802;BME280;61891;55.818;37.084;2023-08-30T02:38:12;99490.81;;;14.74;71.33
72802;BME280;61891;55.818;37.084;2023-08-30T02:40:38;99465.41;;;14.57;71.11
72802;BME280;61891;55.818;37.084;2023-08-30T02:43:03;99485.88;;;14.71;71.04
72802;BME280;61891;55.818;37.084;2023-08-30T02:45:29;99492.09;;;14.78;71.36
72802;BME280;61891;55.818;37.084;2023-08-30T02:47:56;99495.41;;;14.80;71.10
72802;BME280;61891;55.818;37.084;2023-08-30T02:50:25;99483.84;;;14.73;70.88
72802;BME280;61891;55.818;37.084;2023-08-30T02:52:51;99496.22;;;14.81;71.21
72802;BME280;61891;55.818;37.084;2023-08-30T02:55:18;99481.72;;;14.69;71.08
72802;BME280;61891;55.818;37.084;2023-08-30T02:57:44;99497.22;;;14.80;71.00
72802;BME280;61891;55.818;37.084;2023-08-30T03:00:10;99495.31;;;14.74;71.00
72802;BME280;61891;55.818;37.084;2023-08-30T03:02:36;99493.34;;;14.82;71.45
72802;BME280;61891;55.818;37.084;2023-08-30T03:05:02;99496.66;;;14.84;71.13
72802;BME280;61891;55.818;37.084;2023-08-30T03:07:31;99483.44;;;14.76;71.01
72802;BME280;61891;55.818;37.084;2023-08-30T03:09:57;99492.34;;;14.83;70.85
72802;BME280;61891;55.818;37.084;2023-08-30T03:12:23;99491.72;;;14.81;71.38
72802;BME280;61891;55.818;37.084;2023-08-30T03:14:49;99488.03;;;14.82;70.77
72802;BME280;61891;55.818;37.084;2023-08-30T03:17:15;99497.50;;;14.85;70.83
72802;BME280;61891;55.818;37.084;2023-08-30T03:19:41;99478.50;;;14.73;70.63
72802;BME280;61891;55.818;37.084;2023-08-30T03:22:07;99519.72;;;14.92;70.78
72802;BME280;61891;55.818;37.084;2023-08-30T03:24:33;99514.84;;;14.96;70.58
72802;BME280;61891;55.818;37.084;2023-08-30T03:26:59;99494.25;;;14.90;70.60
72802;BME280;61891;55.818;37.084;2023-08-30T03:29:25;99494.50;;;14.95;70.50
72802;BME280;61891;55.818;37.084;2023-08-30T03:31:51;99499.06;;;15.01;70.61
72802;BME280;61891;55.818;37.084;2023-08-30T03:34:17;99500.78;;;15.08;70.51
72802;BME280;61891;55.818;37.084;2023-08-30T03:36:42;99484.13;;;15.06;70.52
72802;BME280;61891;55.818;37.084;2023-08-30T03:39:16;99500.44;;;15.18;70.48
72802;BME280;61891;55.818;37.084;2023-08-30T03:41:42;99471.34;;;15.02;70.25
72802;BME280;61891;55.818;37.084;2023-08-30T03:44:08;99489.53;;;15.13;70.28
72802;BME280;61891;55.818;37.084;2023-08-30T03:46:34;99502.59;;;15.29;70.22
72802;BME280;61891;55.818;37.084;2023-08-30T03:49:00;99510.47;;;15.37;70.12
72802;BME280;61891;55.818;37.084;2023-08-30T03:51:26;99504.53;;;15.42;70.08
72802;BME280;61891;55.818;37.084;2023-08-30T03:53:51;99502.09;;;15.47;70.22
72802;BME280;61891;55.818;37.084;2023-08-30T03:56:17;99499.69;;;15.52;70.08
72802;BME280;61891;55.818;37.084;2023-08-30T03:58:46;99493.13;;;15.55;69.79
72802;BME280;61891;55.818;37.084;2023-08-30T04:01:11;99496.72;;;15.62;69.75
72802;BME280;61891;55.818;37.084;2023-08-30T04:03:37;99496.75;;;15.68;69.61
72802;BME280;61891;55.818;37.084;2023-08-30T04:06:03;99492.47;;;15.74;69.72
72802;BME280;61891;55.818;37.084;2023-08-30T04:08:29;99499.91;;;15.78;69.55
72802;BME280;61891;55.818;37.084;2023-08-30T04:10:55;99489.81;;;15.74;69.16
72802;BME280;61891;55.818;37.084;2023-08-30T04:13:23;99496.25;;;15.86;69.29
72802;BME280;61891;55.818;37.084;2023-08-30T04:15:49;99504.88;;;15.88;69.29
72802;BME280;61891;55.818;37.084;2023-08-30T04:18:15;99513.97;;;15.94;69.56
72802;BME280;61891;55.818;37.084;2023-08-30T04:20:45;99522.41;;;15.97;69.18
72802;BME280;61891;55.818;37.084;2023-08-30T04:23:11;99511.72;;;15.97;68.71
72802;BME280;61891;55.818;37.084;2023-08-30T04:25:37;99516.09;;;16.05;68.57
72802;BME280;61891;55.818;37.084;2023-08-30T04:28:04;99514.03;;;16.07;68.41
72802;BME280;61891;55.818;37.084;2023-08-30T04:30:30;99514.69;;;16.16;69.00
72802;BME280;61891;55.818;37.084;2023-08-30T04:32:56;99513.91;;;16.22;68.42
72802;BME280;61891;55.818;37.084;2023-08-30T04:35:22;99517.41;;;16.29;68.55
72802;BME280;61891;55.818;37.084;2023-08-30T04:37:48;99514.53;;;16.30;68.29
72802;BME280;61891;55.818;37.084;2023-08-30T04:40:14;99516.63;;;16.35;67.98
72802;BME280;61891;55.818;37.084;2023-08-30T04:42:40;99516.41;;;16.36;68.16
72802;BME280;61891;55.818;37.084;2023-08-30T04:45:07;99512.31;;;16.40;67.71
72802;BME280;61891;55.818;37.084;2023-08-30T04:47:34;99501.00;;;16.38;67.63
72802;BME280;61891;55.818;37.084;2023-08-30T04:50:02;99477.50;;;16.27;67.70
72802;BME280;61891;55.818;37.084;2023-08-30T04:52:32;99517.72;;;16.54;67.86
72802;BME280;61891;55.818;37.084;2023-08-30T04:54:58;99511.34;;;16.55;67.42
72802;BME280;61891;55.818;37.084;2023-08-30T04:57:28;99518.34;;;16.62;67.71
72802;BME280;61891;55.818;37.084;2023-08-30T04:59:55;99525.00;;;16.66;67.29
72802;BME280;61891;55.818;37.084;2023-08-30T05:02:21;99528.91;;;16.70;67.37
72802;BME280;61891;55.818;37.084;2023-08-30T05:05:00;99521.72;;;16.78;67.10
72802;BME280;61891;55.818;37.084;2023-08-30T05:07:26;99501.13;;;16.71;66.92
72802;BME280;61891;55.818;37.084;2023-08-30T05:09:52;99517.84;;;16.93;66.31
72802;BME280;61891;55.818;37.084;2023-08-30T05:12:18;99523.19;;;17.00;66.17
72802;BME280;61891;55.818;37.084;2023-08-30T05:14:44;99521.75;;;17.04;66.36
72802;BME280;61891;55.818;37.084;2023-08-30T05:17:09;99524.03;;;17.07;66.05
72802;BME280;61891;55.818;37.084;2023-08-30T05:19:35;99465.31;;;16.86;65.90
72802;BME280;61891;55.818;37.084;2023-08-30T05:22:03;99507.75;;;17.15;66.16
72802;BME280;61891;55.818;37.084;2023-08-30T05:24:29;99497.84;;;17.09;66.01
72802;BME280;61891;55.818;37.084;2023-08-30T05:26:55;99514.75;;;17.23;65.49
72802;BME280;61891;55.818;37.084;2023-08-30T05:29:24;99507.13;;;17.26;65.20
72802;BME280;61891;55.818;37.084;2023-08-30T05:31:50;99491.06;;;17.26;65.56
72802;BME280;61891;55.818;37.084;2023-08-30T05:34:45;99513.94;;;17.35;65.02
72802;BME280;61891;55.818;37.084;2023-08-30T05:37:34;99514.75;;;17.43;64.95
72802;BME280;61891;55.818;37.084;2023-08-30T05:40:17;99501.97;;;17.51;64.89
72802;BME280;61891;55.818;37.084;2023-08-30T05:42:43;99515.16;;;17.59;64.52
72802;BME280;61891;55.818;37.084;2023-08-30T05:45:09;99509.38;;;17.69;64.76
72802;BME280;61891;55.818;37.084;2023-08-30T05:47:35;99511.84;;;17.77;64.24
72802;BME280;61891;55.818;37.084;2023-08-30T05:50:00;99493.28;;;17.76;64.31
72802;BME280;61891;55.818;37.084;2023-08-30T05:52:26;99507.72;;;17.75;63.80
72802;BME280;61891;55.818;37.084;2023-08-30T05:54:52;99498.25;;;17.59;63.85
72802;BME280;61891;55.818;37.084;2023-08-30T05:57:18;99518.47;;;17.68;63.91
72802;BME280;61891;55.818;37.084;2023-08-30T05:59:44;99522.78;;;17.69;63.79
72802;BME280;61891;55.818;37.084;2023-08-30T06:02:09;99510.63;;;17.73;63.98
72802;BME280;61891;55.818;37.084;2023-08-30T06:04:36;99516.97;;;17.85;64.03
72802;BME280;61891;55.818;37.084;2023-08-30T06:07:01;99510.97;;;17.96;63.87
72802;BME280;61891;55.818;37.084;2023-08-30T06:09:28;99517.94;;;18.11;63.21
72802;BME280;61891;55.818;37.084;2023-08-30T06:11:54;99510.66;;;18.24;63.44
72802;BME280;61891;55.818;37.084;2023-08-30T06:14:20;99496.00;;;18.27;63.04
72802;BME280;61891;55.818;37.084;2023-08-30T06:16:49;99498.00;;;18.38;62.72
72802;BME280;61891;55.818;37.084;2023-08-30T06:19:16;99524.97;;;18.63;62.67
72802;BME280;61891;55.818;37.084;2023-08-30T06:21:42;99506.78;;;18.58;62.41
72802;BME280;61891;55.818;37.084;2023-08-30T06:24:08;99528.84;;;18.74;62.29
72802;BME280;61891;55.818;37.084;2023-08-30T06:26:34;99530.03;;;18.78;62.00
72802;BME280;61891;55.818;37.084;2023-08-30T06:28:59;99518.47;;;18.77;61.69
72802;BME280;61891;55.818;37.084;2023-08-30T06:31:25;99512.63;;;18.87;61.50
72802;BME280;61891;55.818;37.084;2023-08-30T06:33:51;99508.59;;;19.03;61.41
72802;BME280;61891;55.818;37.084;2023-08-30T06:36:17;99505.31;;;19.25;60.94
72802;BME280;61891;55.818;37.084;2023-08-30T06:38:43;99501.53;;;19.58;60.73
72802;BME280;61891;55.818;37.084;2023-08-30T06:41:09;99509.03;;;19.74;60.37
72802;BME280;61891;55.818;37.084;2023-08-30T06:43:35;99507.25;;;19.86;60.29
72802;BME280;61891;55.818;37.084;2023-08-30T06:46:01;99515.19;;;20.00;60.13
72802;BME280;61891;55.818;37.084;2023-08-30T06:48:27;99504.19;;;20.01;59.44
72802;BME280;61891;55.818;37.084;2023-08-30T06:50:56;99495.22;;;20.07;59.39
72802;BME280;61891;55.818;37.084;2023-08-30T06:53:22;99504.72;;;20.10;59.35
72802;BME280;61891;55.818;37.084;2023-08-30T06:55:56;99513.38;;;20.12;58.94
72802;BME280;61891;55.818;37.084;2023-08-30T06:58:21;99516.13;;;20.23;59.02
72802;BME280;61891;55.818;37.084;2023-08-30T07:00:47;99515.00;;;20.31;59.06
72802;BME280;61891;55.818;37.084;2023-08-30T07:03:13;99480.63;;;20.15;58.58
72802;BME280;61891;55.818;37.084;2023-08-30T07:05:38;99516.88;;;20.31;58.45
72802;BME280;61891;55.818;37.084;2023-08-30T07:08:04;99507.97;;;20.30;58.35
72802;BME280;61891;55.818;37.084;2023-08-30T07:10:30;99528.34;;;20.44;58.06
72802;BME280;61891;55.818;37.084;2023-08-30T07:12:56;99528.25;;;20.51;57.60
72802;BME280;61891;55.818;37.084;2023-08-30T07:15:21;99527.81;;;20.54;58.74
72802;BME280;61891;55.818;37.084;2023-08-30T07:17:47;99534.22;;;20.53;57.79
72802;BME280;61891;55.818;37.084;2023-08-30T07:20:13;99516.53;;;20.45;57.77
72802;BME280;61891;55.818;37.084;2023-08-30T07:22:39;99510.00;;;20.35;58.37
72802;BME280;61891;55.818;37.084;2023-08-30T07:25:05;99527.06;;;20.47;57.62
72802;BME280;61891;55.818;37.084;2023-08-30T07:27:32;99525.47;;;20.57;57.73
72802;BME280;61891;55.818;37.084;2023-08-30T07:29:57;99517.44;;;20.69;57.84
72802;BME280;61891;55.818;37.084;2023-08-30T07:32:23;99530.22;;;20.74;56.77
72802;BME280;61891;55.818;37.084;2023-08-30T07:34:49;99534.69;;;20.80;57.13
72802;BME280;61891;55.818;37.084;2023-08-30T07:37:18;99528.56;;;20.91;56.63
72802;BME280;61891;55.818;37.084;2023-08-30T07:39:45;99534.34;;;21.06;56.87
72802;BME280;61891;55.818;37.084;2023-08-30T07:42:14;99524.03;;;21.15;56.48
72802;BME280;61891;55.818;37.084;2023-08-30T07:44:40;99490.13;;;20.96;56.32
72802;BME280;61891;55.818;37.084;2023-08-30T07:47:06;99530.63;;;21.19;56.11
72802;BME280;61891;55.818;37.084;2023-08-30T07:49:32;99540.84;;;21.29;55.80
72802;BME280;61891;55.818;37.084;2023-08-30T07:51:57;99495.03;;;21.29;55.80
72802;BME280;61891;55.818;37.084;2023-08-30T07:54:23;99541.00;;;21.57;55.57
72802;BME280;61891;55.818;37.084;2023-08-30T07:56:49;99530.22;;;21.57;54.68
72802;BME280;61891;55.818;37.084;2023-08-30T07:59:14;99527.53;;;21.57;54.82
72802;BME280;61891;55.818;37.084;2023-08-30T08:01:40;99529.03;;;21.53;54.15
72802;BME280;61891;55.818;37.084;2023-08-30T08:04:09;99495.63;;;21.42;54.62
72802;BME280;61891;55.818;37.084;2023-08-30T08:06:35;99521.53;;;21.78;54.98
72802;BME280;61891;55.818;37.084;2023-08-30T08:09:01;99526.56;;;21.86;54.04
72802;BME280;61891;55.818;37.084;2023-08-30T08:11:26;99514.16;;;21.74;54.63
72802;BME280;61891;55.818;37.084;2023-08-30T08:13:52;99536.66;;;21.79;53.49
72802;BME280;61891;55.818;37.084;2023-08-30T08:16:18;99506.88;;;21.74;54.09
72802;BME280;61891;55.818;37.084;2023-08-30T08:18:43;99535.16;;;22.07;53.15
72802;BME280;61891;55.818;37.084;2023-08-30T08:21:09;99536.31;;;22.11;53.44
72802;BME280;61891;55.818;37.084;2023-08-30T08:23:34;99551.78;;;22.27;53.16
72802;BME280;61891;55.818;37.084;2023-08-30T08:26:00;99555.41;;;22.33;53.38
72802;BME280;61891;55.818;37.084;2023-08-30T08:28:28;99550.34;;;22.36;52.84
72802;BME280;61891;55.818;37.084;2023-08-30T08:30:54;99567.25;;;22.43;53.18
72802;BME280;61891;55.818;37.084;2023-08-30T08:33:20;99567.25;;;22.43;51.71
72802;BME280;61891;55.818;37.084;2023-08-30T08:35:49;99559.09;;;22.55;52.40
72802;BME280;61891;55.818;37.084;2023-08-30T08:38:14;99554.00;;;22.70;52.90
72802;BME280;61891;55.818;37.084;2023-08-30T08:40:40;99550.22;;;22.83;51.33
72802;BME280;61891;55.818;37.084;2023-08-30T08:43:06;99546.19;;;22.86;51.55
72802;BME280;61891;55.818;37.084;2023-08-30T08:45:35;99560.72;;;22.96;50.79
72802;BME280;61891;55.818;37.084;2023-08-30T08:48:05;99552.13;;;22.99;51.51
72802;BME280;61891;55.818;37.084;2023-08-30T08:50:34;99561.00;;;23.11;50.54
72802;BME280;61891;55.818;37.084;2023-08-30T08:53:01;99560.50;;;23.14;51.09
72802;BME280;61891;55.818;37.084;2023-08-30T08:55:29;99553.63;;;23.07;51.04
72802;BME280;61891;55.818;37.084;2023-08-30T08:57:58;99523.34;;;22.93;50.98
72802;BME280;61891;55.818;37.084;2023-08-30T09:00:25;99550.34;;;23.22;50.61
72802;BME280;61891;55.818;37.084;2023-08-30T09:02:53;99528.31;;;23.30;50.69
72802;BME280;61891;55.818;37.084;2023-08-30T09:05:19;99545.84;;;23.44;50.36
72802;BME280;61891;55.818;37.084;2023-08-30T09:07:46;99559.47;;;23.49;50.34
72802;BME280;61891;55.818;37.084;2023-08-30T09:10:12;99548.81;;;23.26;50.55
72802;BME280;61891;55.818;37.084;2023-08-30T09:12:38;99569.69;;;23.13;50.58
72802;BME280;61891;55.818;37.084;2023-08-30T09:15:04;99569.88;;;23.24;50.19
72802;BME280;61891;55.818;37.084;2023-08-30T09:17:39;99571.97;;;24.05;49.00
72802;BME280;61891;55.818;37.084;2023-08-30T09:20:10;99572.59;;;24.29;48.29
72802;BME280;61891;55.818;37.084;2023-08-30T09:22:40;99580.56;;;24.58;48.80
72802;BME280;61891;55.818;37.084;2023-08-30T09:25:08;99587.00;;;25.27;48.17
72802;BME280;61891;55.818;37.084;2023-08-30T09:27:35;99584.59;;;25.31;47.51
72802;BME280;61891;55.818;37.084;2023-08-30T09:30:04;99568.56;;;24.97;47.01
72802;BME280;61891;55.818;37.084;2023-08-30T09:32:31;99572.25;;;24.91;47.22
72802;BME280;61891;55.818;37.084;2023-08-30T09:34:57;99572.75;;;25.10;47.29
72802;BME280;61891;55.818;37.084;2023-08-30T09:37:23;99598.22;;;26.42;46.24
72802;BME280;61891;55.818;37.084;2023-08-30T09:39:50;99589.84;;;27.67;44.57
72802;BME280;61891;55.818;37.084;2023-08-30T09:42:19;99586.56;;;28.75;43.29
72802;BME280;61891;55.818;37.084;2023-08-30T09:44:45;99591.91;;;29.74;41.15
72802;BME280;61891;55.818;37.084;2023-08-30T09:47:12;99602.06;;;30.50;41.17
72802;BME280;61891;55.818;37.084;2023-08-30T09:49:44;99603.56;;;31.04;38.82
72802;BME280;61891;55.818;37.084;2023-08-30T09:52:12;99618.00;;;30.91;38.91
72802;BME280;61891;55.818;37.084;2023-08-30T09:54:41;99607.53;;;30.02;40.23
72802;BME280;61891;55.818;37.084;2023-08-30T09:57:10;99615.53;;;29.60;38.68
72802;BME280;61891;55.818;37.084;2023-08-30T09:59:39;99570.53;;;29.81;37.79
72802;BME280;61891;55.818;37.084;2023-08-30T10:02:05;99609.47;;;30.92;38.57
72802;BME280;61891;55.818;37.084;2023-08-30T10:04:31;99610.53;;;31.71;37.59
72802;BME280;61891;55.818;37.084;2023-08-30T10:06:58;99612.03;;;31.96;36.95
72802;BME280;61891;55.818;37.084;2023-08-30T10:09:25;99603.75;;;31.83;36.26
72802;BME280;61891;55.818;37.084;2023-08-30T10:11:51;99601.56;;;31.98;36.70
72802;BME280;61891;55.818;37.084;2023-08-30T10:14:17;99607.13;;;31.93;36.50
72802;BME280;61891;55.818;37.084;2023-08-30T10:16:45;99603.75;;;31.83;35.84
72802;BME280;61891;55.818;37.084;2023-08-30T10:19:14;99595.50;;;32.15;35.57
72802;BME280;61891;55.818;37.084;2023-08-30T10:21:43;99567.56;;;32.27;34.67
72802;BME280;61891;55.818;37.084;2023-08-30T10:24:12;99591.03;;;32.74;34.70
72802;BME280;61891;55.818;37.084;2023-08-30T10:26:39;99598.84;;;33.30;33.71
72802;BME280;61891;55.818;37.084;2023-08-30T10:29:08;99603.66;;;33.92;32.68
72802;BME280;61891;55.818;37.084;2023-08-30T10:31:37;99585.09;;;34.37;32.06
72802;BME280;61891;55.818;37.084;2023-08-30T10:34:13;99592.69;;;34.97;30.31
72802;BME280;61891;55.818;37.084;2023-08-30T10:36:41;99596.09;;;35.63;31.61
72802;BME280;61891;55.818;37.084;2023-08-30T10:39:14;99562.66;;;35.73;29.88
72802;BME280;61891;55.818;37.084;2023-08-30T10:41:56;99595.91;;;35.85;28.02
72802;BME280;61891;55.818;37.084;2023-08-30T10:44:23;99586.09;;;36.05;29.13
72802;BME280;61891;55.818;37.084;2023-08-30T10:46:55;99592.06;;;36.16;28.36
72802;BME280;61891;55.818;37.084;2023-08-30T10:49:21;99585.09;;;36.57;29.85
72802;BME280;61891;55.818;37.084;2023-08-30T10:51:56;99584.03;;;36.70;28.82
72802;BME280;61891;55.818;37.084;2023-08-30T10:54:23;99575.59;;;36.45;29.72
72802;BME280;61891;55.818;37.084;2023-08-30T10:56:56;99589.19;;;36.51;27.87
72802;BME280;61891;55.818;37.084;2023-08-30T10:59:25;99573.69;;;35.82;30.14
72802;BME280;61891;55.818;37.084;2023-08-30T11:01:52;99595.13;;;35.07;29.82
72802;BME280;61891;55.818;37.084;2023-08-30T11:04:19;99592.63;;;34.23;31.08
72802;BME280;61891;55.818;37.084;2023-08-30T11:06:46;99607.81;;;34.51;30.30
72802;BME280;61891;55.818;37.084;2023-08-30T11:09:16;99599.16;;;35.70;29.49
72802;BME280;61891;55.818;37.084;2023-08-30T11:11:46;99611.25;;;36.59;29.54
72802;BME280;61891;55.818;37.084;2023-08-30T11:14:13;99594.47;;;36.94;28.52
72802;BME280;61891;55.818;37.084;2023-08-30T11:16:39;99599.84;;;37.86;28.11
72802;BME280;61891;55.818;37.084;2023-08-30T11:19:10;99586.72;;;37.95;26.30
72802;BME280;61891;55.818;37.084;2023-08-30T11:30:16;99510.84;;;37.18;25.72
72802;BME280;61891;55.818;37.084;2023-08-30T11:32:44;99593.25;;;38.35;26.76
72802;BME280;61891;55.818;37.084;2023-08-30T11:35:10;99609.19;;;38.63;25.82
72802;BME280;61891;55.818;37.084;2023-08-30T11:37:57;99619.47;;;39.27;24.90
72802;BME280;61891;55.818;37.084;2023-08-30T11:40:53;99612.53;;;40.05;24.39
72802;BME280;61891;55.818;37.084;2023-08-30T11:43:30;99605.09;;;40.24;23.83
72802;BME280;61891;55.818;37.084;2023-08-30T11:47:50;99604.13;;;40.48;23.25
72802;BME280;61891;55.818;37.084;2023-08-30T11:51:40;99589.69;;;41.13;22.18
72802;BME280;61891;55.818;37.084;2023-08-30T12:02:20;99577.69;;;42.58;21.65
72802;BME280;61891;55.818;37.084;2023-08-30T12:18:43;99570.22;;;41.51;21.50
72802;BME280;61891;55.818;37.084;2023-08-30T12:22:42;99564.69;;;38.84;23.08
72802;BME280;61891;55.818;37.084;2023-08-30T12:34:09;99463.41;;;36.74;23.91
72802;BME280;61891;55.818;37.084;2023-08-30T12:37:27;99532.78;;;38.25;23.88
72802;BME280;61891;55.818;37.084;2023-08-30T12:40:38;99524.72;;;39.25;23.13
72802;BME280;61891;55.818;37.084;2023-08-30T12:43:37;99394.78;;;39.74;23.34
72802;BME280;61891;55.818;37.084;2023-08-30T12:46:53;99447.06;;;41.35;21.29
72802;BME280;61891;55.818;37.084;2023-08-30T12:50:29;99486.22;;;42.41;20.34
72802;BME280;61891;55.818;37.084;2023-08-30T12:56:52;99458.09;;;43.17;20.63
72802;BME280;61891;55.818;37.084;2023-08-30T12:59:17;99461.91;;;43.38;20.71
72802;BME280;61891;55.818;37.084;2023-08-30T13:01:46;99466.47;;;43.57;20.40
72802;BME280;61891;55.818;37.084;2023-08-30T13:04:12;99462.63;;;43.72;19.79
72802;BME280;61891;55.818;37.084;2023-08-30T13:06:38;99472.88;;;44.06;19.78
72802;BME280;61891;55.818;37.084;2023-08-30T13:09:06;99449.09;;;43.78;19.80
72802;BME280;61891;55.818;37.084;2023-08-30T13:11:32;99450.53;;;44.06;19.30
72802;BME280;61891;55.818;37.084;2023-08-30T13:13:58;99446.28;;;44.33;19.37
72802;BME280;61891;55.818;37.084;2023-08-30T13:16:24;99452.00;;;44.54;18.79
72802;BME280;61891;55.818;37.084;2023-08-30T13:18:50;99444.47;;;44.65;18.82
72802;BME280;61891;55.818;37.084;2023-08-30T13:21:16;99429.81;;;44.14;19.05
72802;BME280;61891;55.818;37.084;2023-08-30T13:23:42;99446.69;;;43.73;19.53
72802;BME280;61891;55.818;37.084;2023-08-30T13:26:07;99455.22;;;43.09;19.40
72802;BME280;61891;55.818;37.084;2023-08-30T13:28:33;99461.78;;;42.31;19.44
72802;BME280;61891;55.818;37.084;2023-08-30T13:31:00;99459.63;;;41.94;19.19
72802;BME280;61891;55.818;37.084;2023-08-30T13:33:26;99451.69;;;41.70;19.22
72802;BME280;61891;55.818;37.084;2023-08-30T13:35:52;99431.44;;;40.50;19.83
72802;BME280;61891;55.818;37.084;2023-08-30T13:38:19;99414.84;;;38.12;20.63
72802;BME280;61891;55.818;37.084;2023-08-30T13:40:45;99427.47;;;36.41;21.98
72802;BME280;61891;55.818;37.084;2023-08-30T13:43:11;99417.81;;;35.03;23.03
72802;BME280;61891;55.818;37.084;2023-08-30T13:45:37;99419.53;;;33.95;23.73
72802;BME280;61891;55.818;37.084;2023-08-30T13:48:03;99412.44;;;33.02;24.48